Terminal Aerodrome Forecast
Issued by NWS Quad Cities IA IL

Home | Current Version | Previous Version | Text Only | Print | Product List | Glossary On
Versions: 1 2 3 4 5 6 7 8 9 10 11 12 13 14 15 16 17
090
FTUS43 KDVN 251833 AAA
TAFDBQ
TAF AMD
KDBQ 251833Z 2519/2618 24014KT P6SM SCT030 BKN070
      TEMPO 2519/2520 -SHRA BKN027
     FM252000 29012G20KT P6SM BKN028
     FM260100 28010KT P6SM BKN035
     FM261500 27015G20KT P6SM BKN040=

USA.gov is the U.S. government's official web portal to all federal, state and local government web resources and services.